British Ruby — 2AKI2 — position and weather

sailwx.info

Track history (hours):
 
Tides and Currents Weather Stations Pressure Air Temp Water Temp Dewpoint Dewpoint Depression Visibility Wind Speed Wind Dir Waves Ship Positions

British Ruby

Last reported at 2014-Dec-18 00:00 UTC. Time now 2014-Dec-18 09:34 UTC.
Position N 37°12' E 002°12'.

Length 288 m; draft 10.5 m.

Type: Ship (hazmat cat C). MMSI: 235060453.

Wind from 270 at 16 knots

Barometer 1024.2 mb
Air temperature 14.8 ° C
Visibility: greater than 10.8 NM
Dewpoint 9.4 ° C
Water temperature 16.3 ° C

Date/timePositionNaut miles runAvg speedWind from/ knotsBaromVisibWave heightAir tempDewpointWater temp
2014-Dec-18 00:00N 37°12' E 002°12'43 3.6 270 / 161024.210.8 14.8 9.416.3
2014-Dec-17 12:00N 37°12' E 003°06'19110.2 310 / 111026.610.8 1.516.510.516.8
2014-Dec-16 17:22N 36°44' W 000°50'21412.4
2014-Dec-16 00:07N 36°02' W 005°11'712.7
2014-Dec-15 23:33N 36°03' W 005°20'3 2.8
2014-Dec-15 22:22N 36°06' W 005°21'0 0.0
2014-Dec-15 21:28N 36°06' W 005°21'0 0.0
2014-Dec-15 20:28N 36°06' W 005°21'0 0.1
2014-Dec-15 19:28N 36°06' W 005°21'0 0.0
2014-Dec-15 18:28N 36°06' W 005°21'0 0.1
2014-Dec-15 17:28N 36°06' W 005°21'0 0.0
2014-Dec-15 16:31N 36°06' W 005°21'0 0.0
2014-Dec-15 15:28N 36°06' W 005°21'0 0.0
2014-Dec-15 14:31N 36°06' W 005°21'0 0.0
2014-Dec-15 13:31N 36°06' W 005°21'0 0.1
2014-Dec-15 12:32N 36°06' W 005°21'2 2.2
2014-Dec-15 11:33N 36°04' W 005°20'7 7.3
2014-Dec-15 10:33N 36°03' W 005°11'39417.7
2014-Dec-14 12:17N 37°19' E 002°50'5115.5
2014-Dec-14 09:00N 37°24' E 003°54'24817.8 220 / 201016.510.8 17.4 6.017.5
2014-Dec-13 19:03N 37°55' E 009°05'3016.7
2014-Dec-13 17:15N 37°45' E 009°41'67416.5
2014-Dec-12 00:31N 36°31' E 023°41'1818.5
2014-Dec-11 23:33N 36°44' E 023°55'1616.5
2014-Dec-11 22:33N 36°59' E 024°04'1818.0
2014-Dec-11 21:33N 37°17' E 024°10'1817.8
2014-Dec-11 20:33N 37°31' E 024°23'1817.8
2014-Dec-11 19:33N 37°47' E 024°33'2118.5
2014-Dec-11 18:26N 38°05' E 024°47'1718.7
2014-Dec-11 17:31N 38°18' E 025°01'9 0.2
2014-Dec-09 20:25N 38°11' E 024°53'2312.1
2014-Dec-09 18:33N 37°52' E 024°36'1313.0
2014-Dec-09 17:33N 37°40' E 024°31'1412.7
2014-Dec-09 16:29N 37°29' E 024°21'1212.8
2014-Dec-09 15:33N 37°19' E 024°13'1313.2
2014-Dec-09 14:33N 37°06' E 024°08'1313.0
2014-Dec-09 13:33N 36°54' E 024°03'1110.8
2014-Dec-09 12:33N 36°44' E 023°57'1312.6
2014-Dec-09 11:33N 36°33' E 023°49'12811.1
2014-Dec-09 00:00N 36°12' E 021°12'   350 / 121002.410.8 17.0 9.820.5
Track history (hours):
 
Tides and Currents Weather Stations Pressure Air Temp Water Temp Dewpoint Dewpoint Depression Visibility Wind Speed Wind Dir Waves Ship Positions

British Ruby

Last reported at 2014-Dec-18 00:00 UTC. Time now 2014-Dec-18 09:34 UTC.
Position N 37°12' E 002°12'.

Length 288 m; draft 10.5 m.

Type: Ship (hazmat cat C). MMSI: 235060453.

Wind from 270 at 16 knots

Barometer 1024.2 mb
Air temperature 14.8 ° C
Visibility: greater than 10.8 NM
Dewpoint 9.4 ° C
Water temperature 16.3 ° C

Date/timePositionNaut miles runAvg speedWind from/ knotsBaromVisibWave heightAir tempDewpointWater temp
2014-Dec-18 00:00N 37°12' E 002°12'43 3.6 270 / 161024.210.8 14.8 9.416.3
2014-Dec-17 12:00N 37°12' E 003°06'19110.2 310 / 111026.610.8 1.516.510.516.8
2014-Dec-16 17:22N 36°44' W 000°50'21412.4
2014-Dec-16 00:07N 36°02' W 005°11'712.7
2014-Dec-15 23:33N 36°03' W 005°20'3 2.8
2014-Dec-15 22:22N 36°06' W 005°21'0 0.0
2014-Dec-15 21:28N 36°06' W 005°21'0 0.0
2014-Dec-15 20:28N 36°06' W 005°21'0 0.1
2014-Dec-15 19:28N 36°06' W 005°21'0 0.0
2014-Dec-15 18:28N 36°06' W 005°21'0 0.1
2014-Dec-15 17:28N 36°06' W 005°21'0 0.0
2014-Dec-15 16:31N 36°06' W 005°21'0 0.0
2014-Dec-15 15:28N 36°06' W 005°21'0 0.0
2014-Dec-15 14:31N 36°06' W 005°21'0 0.0
2014-Dec-15 13:31N 36°06' W 005°21'0 0.1
2014-Dec-15 12:32N 36°06' W 005°21'2 2.2
2014-Dec-15 11:33N 36°04' W 005°20'7 7.3
2014-Dec-15 10:33N 36°03' W 005°11'39417.7
2014-Dec-14 12:17N 37°19' E 002°50'5115.5
2014-Dec-14 09:00N 37°24' E 003°54'24817.8 220 / 201016.510.8 17.4 6.017.5
2014-Dec-13 19:03N 37°55' E 009°05'3016.7
2014-Dec-13 17:15N 37°45' E 009°41'67416.5
2014-Dec-12 00:31N 36°31' E 023°41'1818.5
2014-Dec-11 23:33N 36°44' E 023°55'1616.5
2014-Dec-11 22:33N 36°59' E 024°04'1818.0
2014-Dec-11 21:33N 37°17' E 024°10'1817.8
2014-Dec-11 20:33N 37°31' E 024°23'1817.8
2014-Dec-11 19:33N 37°47' E 024°33'2118.5
2014-Dec-11 18:26N 38°05' E 024°47'1718.7
2014-Dec-11 17:31N 38°18' E 025°01'9 0.2
2014-Dec-09 20:25N 38°11' E 024°53'2312.1
2014-Dec-09 18:33N 37°52' E 024°36'1313.0
2014-Dec-09 17:33N 37°40' E 024°31'1412.7
2014-Dec-09 16:29N 37°29' E 024°21'1212.8
2014-Dec-09 15:33N 37°19' E 024°13'1313.2
2014-Dec-09 14:33N 37°06' E 024°08'1313.0
2014-Dec-09 13:33N 36°54' E 024°03'1110.8
2014-Dec-09 12:33N 36°44' E 023°57'1312.6
2014-Dec-09 11:33N 36°33' E 023°49'12811.1
2014-Dec-09 00:00N 36°12' E 021°12'   350 / 121002.410.8 17.0 9.820.5

Dump ship's entire track history